Unser Platzwetter:
(um das Bild zu aktualisieren oder bei unvollständig geladenem Bild den Reload-Button des Browsers drücken)

 

 
[Quelle: ADDS]
METAR
ETNN 181120Z 27013G23KT 9999 SCT060 BKN340 26/11 Q1011 BLU+BLU+ =
COR ETNN 181056Z 1811/1820 25010G20KT 9999 NSW FEW050 SCT140 BKN300 PROB30 1812/1815 27012G22KT 6000 -SHRA BKN050TCU PROB30 1815/1820 28015G25KT 4000 SHRA BKN030CB BY ETGL
TAF
COR ETNN 181056Z 1811/1820 25010G20KT 9999 NSW FEW050 SCT140 BKN300 PROB30 1812/1815 27012G22KT 6000 -SHRA BKN050TCU PROB30 1815/1820 28015G25KT 4000 SHRA BKN030CB BY ETGL =
SR / SS: 03:40 / 19:38 UTC (Vettweiss-Soller 2019-07-18)
 

Hier gibt es ein Wetterdiagramm der letzten 7 Tage.

Hier geht es zu unserer Webcam.

Satelitenbild:

aktuelles Meteosat-Bild von www.wetterzentrale.de